Time;durP1;ratioP1;P1;durP2;ratioP2;P2;SDS_P1;SDS_P2;PMS_P1;PMS_P2;Temp;Humidity;BMP_temperature;BMP_pressure;BME280_temperature;BME280_humidity;BME280_pressure;Samples;Min_cycle;Max_cycle;Signal;HPM_P1;HPM_P2
2021/10/26 00:00:44;;;;;;;13.23;10.53;;;14.30;99.90;;;;;;5051393;28;20175;-69
2021/10/26 00:03:10;;;;;;;11.60;10.33;;;14.40;99.90;;;;;;5052486;28;20672;-69
2021/10/26 00:05:35;;;;;;;12.00;10.93;;;14.30;99.90;;;;;;5051564;28;20266;-69
2021/10/26 00:08:01;;;;;;;13.90;12.60;;;14.40;99.90;;;;;;5052551;28;20636;-69
2021/10/26 00:10:27;;;;;;;11.77;10.63;;;14.40;99.90;;;;;;5051906;28;20618;-68
2021/10/26 00:12:52;;;;;;;12.10;11.00;;;14.40;99.90;;;;;;5051666;28;20190;-69
2021/10/26 00:15:19;;;;;;;11.87;10.67;;;14.50;99.90;;;;;;5052523;28;20211;-67
2021/10/26 00:17:45;;;;;;;11.40;10.30;;;14.40;99.90;;;;;;5051450;28;20217;-67
2021/10/26 00:20:11;;;;;;;13.00;11.70;;;14.40;99.90;;;;;;5052373;28;20409;-67
2021/10/26 00:22:37;;;;;;;12.03;10.80;;;14.50;99.90;;;;;;5050260;28;20203;-67
2021/10/26 00:25:03;;;;;;;12.10;11.00;;;14.50;99.90;;;;;;5051729;28;20249;-68
2021/10/26 00:27:28;;;;;;;11.50;10.50;;;14.50;99.90;;;;;;5052641;28;20183;-67
2021/10/26 00:29:54;;;;;;;11.13;10.00;;;14.50;99.90;;;;;;5051732;28;20414;-68
2021/10/26 00:32:20;;;;;;;10.90;9.90;;;14.50;99.90;;;;;;5052307;28;20180;-67
2021/10/26 00:34:46;;;;;;;10.63;9.70;;;14.50;99.90;;;;;;5051269;28;20201;-68
2021/10/26 00:37:13;;;;;;;11.37;10.27;;;14.50;99.90;;;;;;5052146;28;20408;-67
2021/10/26 00:39:39;;;;;;;10.40;9.50;;;14.50;99.90;;;;;;5051308;28;20411;-68
2021/10/26 00:42:05;;;;;;;11.43;10.50;;;14.50;99.90;;;;;;5051889;28;20416;-67
2021/10/26 00:44:32;;;;;;;10.83;9.73;;;14.40;99.90;;;;;;5051672;28;20477;-74
2021/10/26 00:46:57;;;;;;;10.00;9.00;;;14.40;99.90;;;;;;5051521;28;20445;-67
2021/10/26 00:49:24;;;;;;;11.03;9.93;;;14.30;99.90;;;;;;5052128;28;20406;-67
2021/10/26 00:51:51;;;;;;;10.30;9.40;;;14.30;99.90;;;;;;5051166;28;20433;-67
2021/10/26 00:54:18;;;;;;;11.53;10.43;;;14.30;99.90;;;;;;5052015;28;20978;-66
2021/10/26 00:56:44;;;;;;;11.10;10.10;;;14.40;99.90;;;;;;5050958;28;20753;-67
2021/10/26 00:59:10;;;;;;;10.70;9.73;;;14.30;99.90;;;;;;5052063;28;20417;-67
2021/10/26 01:01:36;;;;;;;11.40;10.30;;;14.40;99.90;;;;;;5051173;28;20410;-76
2021/10/26 01:04:03;;;;;;;12.30;11.17;;;14.30;99.90;;;;;;5052066;28;20181;-67
2021/10/26 01:06:29;;;;;;;11.07;9.97;;;14.30;99.90;;;;;;5051828;28;20418;-67
2021/10/26 01:08:55;;;;;;;10.30;9.40;;;14.30;99.90;;;;;;5051192;28;20897;-68
2021/10/26 01:11:22;;;;;;;10.90;9.53;;;14.30;99.90;;;;;;5051238;28;20424;-68
2021/10/26 01:13:48;;;;;;;11.10;10.00;;;14.30;99.90;;;;;;5050771;28;20948;-68
2021/10/26 01:16:14;;;;;;;16.47;10.77;;;14.30;99.90;;;;;;5050828;28;20485;-67
2021/10/26 01:18:40;;;;;;;10.93;9.70;;;14.30;99.90;;;;;;5050851;28;20788;-68
2021/10/26 01:21:06;;;;;;;13.00;11.63;;;14.30;99.90;;;;;;5051816;28;20482;-67
2021/10/26 01:23:32;;;;;;;12.37;11.07;;;14.30;99.90;;;;;;5051661;28;20185;-67
2021/10/26 01:26:00;;;;;;;11.33;10.13;;;14.30;99.90;;;;;;5050701;28;20424;-67
2021/10/26 01:28:26;;;;;;;12.30;10.70;;;14.30;99.90;;;;;;5051458;28;20409;-67
2021/10/26 01:30:53;;;;;;;12.07;10.77;;;14.30;99.90;;;;;;5049982;28;20417;-67
2021/10/26 01:33:19;;;;;;;11.53;10.43;;;14.30;99.90;;;;;;5051503;28;20812;-67
2021/10/26 01:35:44;;;;;;;11.27;10.07;;;14.40;99.90;;;;;;5050858;28;20975;-67
2021/10/26 01:38:10;;;;;;;11.70;10.60;;;14.40;99.90;;;;;;5053530;28;20496;-67
2021/10/26 01:40:36;;;;;;;11.57;10.30;;;14.40;99.90;;;;;;5054797;28;20642;-75
2021/10/26 01:43:03;;;;;;;10.70;9.70;;;14.40;99.90;;;;;;5054919;28;20261;-67
2021/10/26 01:45:29;;;;;;;10.33;9.33;;;14.40;99.90;;;;;;5055078;28;20979;-67
2021/10/26 01:47:55;;;;;;;10.73;9.73;;;14.40;99.90;;;;;;5053955;28;20423;-67
2021/10/26 01:50:21;;;;;;;9.97;9.00;;;14.40;99.90;;;;;;5055095;28;20178;-67
2021/10/26 01:52:47;;;;;;;10.50;9.50;;;14.40;99.90;;;;;;5054260;28;20403;-68
2021/10/26 01:55:13;;;;;;;11.10;10.03;;;14.30;99.90;;;;;;5054452;28;20495;-67
2021/10/26 01:57:39;;;;;;;14.80;11.30;;;14.40;99.90;;;;;;5053937;28;20183;-77
2021/10/26 02:00:08;;;;;;;13.83;11.07;;;14.30;99.90;;;;;;5054941;28;20501;-67
2021/10/26 02:02:34;;;;;;;11.30;10.17;;;14.40;99.90;;;;;;5054892;28;20906;-68
2021/10/26 02:05:00;;;;;;;14.60;11.20;;;14.30;99.90;;;;;;5053909;28;20429;-68
2021/10/26 02:07:26;;;;;;;12.83;11.03;;;14.40;99.90;;;;;;5054756;28;20884;-67
2021/10/26 02:09:52;;;;;;;12.60;11.13;;;14.40;99.90;;;;;;5053893;28;20420;-67
2021/10/26 02:12:18;;;;;;;13.77;12.40;;;14.30;99.90;;;;;;5053052;28;20546;-67
2021/10/26 02:14:43;;;;;;;15.47;12.20;;;14.30;99.90;;;;;;5053901;28;20212;-68
2021/10/26 02:17:09;;;;;;;16.30;12.60;;;14.30;99.90;;;;;;5054487;28;20669;-68
2021/10/26 02:19:35;;;;;;;13.73;12.33;;;14.30;99.90;;;;;;5054564;28;20187;-67
2021/10/26 02:22:01;;;;;;;13.20;11.90;;;14.30;99.90;;;;;;5053846;28;20216;-67
2021/10/26 02:24:26;;;;;;;14.13;12.00;;;14.30;99.90;;;;;;5054052;28;20211;-67
2021/10/26 02:26:52;;;;;;;16.20;11.70;;;14.30;99.90;;;;;;5053181;28;20831;-68
2021/10/26 02:29:18;;;;;;;12.47;11.20;;;14.30;99.90;;;;;;5054314;28;20629;-67
2021/10/26 02:31:44;;;;;;;13.57;11.10;;;14.30;99.90;;;;;;5053334;28;20299;-67
2021/10/26 02:34:10;;;;;;;13.07;11.97;;;14.30;99.90;;;;;;5053865;28;20838;-68
2021/10/26 02:36:36;;;;;;;13.87;12.47;;;14.30;99.90;;;;;;5052627;28;20554;-67
2021/10/26 02:39:04;;;;;;;13.00;11.87;;;14.30;99.90;;;;;;5053419;28;20410;-67
2021/10/26 02:41:30;;;;;;;13.70;12.33;;;14.30;99.90;;;;;;5053722;28;20436;-68
2021/10/26 02:43:55;;;;;;;14.53;12.57;;;14.30;99.90;;;;;;5053204;28;20932;-68
2021/10/26 02:46:21;;;;;;;14.47;11.90;;;14.30;99.90;;;;;;5053821;28;20182;-67
2021/10/26 02:48:48;;;;;;;13.37;12.07;;;14.30;99.90;;;;;;5052184;28;20543;-67
2021/10/26 02:51:15;;;;;;;13.30;11.57;;;14.30;99.90;;;;;;5053847;28;20171;-67
2021/10/26 02:53:41;;;;;;;15.77;12.97;;;14.30;99.90;;;;;;5052145;28;20521;-76
2021/10/26 02:56:07;;;;;;;15.03;13.30;;;14.30;99.90;;;;;;5053579;28;20496;-68
2021/10/26 02:58:33;;;;;;;13.80;12.03;;;14.30;99.90;;;;;;5053655;28;20903;-67
2021/10/26 03:00:59;;;;;;;13.20;11.90;;;14.30;99.90;;;;;;5053171;28;20192;-67
2021/10/26 03:03:25;;;;;;;12.47;11.27;;;14.30;99.90;;;;;;5053473;28;20185;-67
2021/10/26 03:05:50;;;;;;;13.77;12.40;;;14.30;99.90;;;;;;5051452;28;20257;-67
2021/10/26 03:08:16;;;;;;;13.03;11.57;;;14.30;99.90;;;;;;5053822;28;20181;-67
2021/10/26 03:10:43;;;;;;;12.83;11.30;;;14.30;99.90;;;;;;5053279;28;20177;-76
2021/10/26 03:13:08;;;;;;;12.73;11.43;;;14.30;99.90;;;;;;5053269;28;20420;-67
2021/10/26 03:15:34;;;;;;;12.60;11.40;;;14.30;99.90;;;;;;5053009;28;20549;-68
2021/10/26 03:18:00;;;;;;;15.50;12.33;;;14.30;99.90;;;;;;5052677;28;20416;-67
2021/10/26 03:20:26;;;;;;;13.57;12.13;;;14.30;99.90;;;;;;5053448;28;20696;-67
2021/10/26 03:22:52;;;;;;;13.53;12.00;;;14.30;99.90;;;;;;5052615;28;20179;-68
2021/10/26 03:25:18;;;;;;;13.17;11.87;;;14.30;99.90;;;;;;5053376;28;20402;-67
2021/10/26 03:27:44;;;;;;;12.73;11.53;;;14.30;99.90;;;;;;5053202;28;20183;-75
2021/10/26 03:30:10;;;;;;;13.07;11.57;;;14.30;99.90;;;;;;5035288;28;20425;-67
2021/10/26 03:32:37;;;;;;;20.60;12.30;;;14.30;99.90;;;;;;5052151;28;20416;-66
2021/10/26 03:35:04;;;;;;;13.03;11.77;;;14.30;99.90;;;;;;5051970;28;20452;-66
2021/10/26 03:37:30;;;;;;;13.53;12.20;;;14.30;99.90;;;;;;5051843;28;20409;-66
2021/10/26 03:39:56;;;;;;;13.27;11.90;;;14.30;99.90;;;;;;5052533;28;20413;-66
2021/10/26 03:42:22;;;;;;;12.97;11.20;;;14.30;99.90;;;;;;5053375;28;20405;-66
2021/10/26 03:44:49;;;;;;;12.83;11.33;;;14.40;99.90;;;;;;5051925;28;20594;-67
2021/10/26 03:47:15;;;;;;;15.00;13.40;;;14.40;99.90;;;;;;5053062;28;20430;-66
2021/10/26 03:49:41;;;;;;;13.87;12.47;;;14.40;99.90;;;;;;5053217;28;20433;-67
2021/10/26 03:52:07;;;;;;;14.90;13.37;;;14.40;99.90;;;;;;5052904;28;20190;-66
2021/10/26 03:54:33;;;;;;;15.57;12.57;;;14.40;99.90;;;;;;5052748;28;20449;-66
2021/10/26 03:56:59;;;;;;;13.30;11.90;;;14.50;99.90;;;;;;5032843;28;20483;-66
2021/10/26 03:59:32;;;;;;;14.00;12.43;;;14.50;99.90;;;;;;5033164;28;20402;-66
2021/10/26 04:02:00;;;;;;;14.23;12.73;;;14.40;99.90;;;;;;5032165;28;20642;-66
2021/10/26 04:04:25;;;;;;;14.03;12.27;;;14.40;99.90;;;;;;5044114;28;20424;-67
2021/10/26 04:06:51;;;;;;;14.63;12.50;;;14.50;99.90;;;;;;5052414;28;20402;-66
2021/10/26 04:09:24;;;;;;;14.03;12.53;;;14.50;99.90;;;;;;5052588;28;20622;-67
2021/10/26 04:11:53;;;;;;;15.57;13.43;;;14.50;99.90;;;;;;5051784;28;20199;-66
2021/10/26 04:14:19;;;;;;;14.87;13.17;;;14.50;99.90;;;;;;5051836;28;20469;-66
2021/10/26 04:16:45;;;;;;;15.10;12.60;;;14.50;99.90;;;;;;5052063;28;20413;-67
2021/10/26 04:19:11;;;;;;;14.13;12.70;;;14.50;99.90;;;;;;5051972;28;20174;-67
2021/10/26 04:21:36;;;;;;;15.17;12.33;;;14.50;99.90;;;;;;5052654;28;20187;-67
2021/10/26 04:24:03;;;;;;;14.43;12.47;;;14.50;99.90;;;;;;5051748;28;20214;-67
2021/10/26 04:26:29;;;;;;;13.07;11.70;;;14.50;99.90;;;;;;5052381;28;20190;-67
2021/10/26 04:28:54;;;;;;;13.27;11.40;;;14.50;99.90;;;;;;5052067;28;20405;-68
2021/10/26 04:31:20;;;;;;;15.53;13.27;;;14.50;99.90;;;;;;5052281;28;20424;-67
2021/10/26 04:33:46;;;;;;;15.90;13.00;;;14.50;99.90;;;;;;5051870;28;20296;-68
2021/10/26 04:36:13;;;;;;;14.93;13.50;;;14.50;99.90;;;;;;5052286;28;20187;-68
2021/10/26 04:38:38;;;;;;;19.60;14.10;;;14.50;99.90;;;;;;5052306;28;20487;-68
2021/10/26 04:41:07;;;;;;;14.70;13.20;;;14.50;99.90;;;;;;5051805;28;21013;-67
2021/10/26 04:43:34;;;;;;;14.30;12.90;;;14.50;99.90;;;;;;5052244;28;20170;-67
2021/10/26 04:46:01;;;;;;;14.53;13.20;;;14.50;99.90;;;;;;5051540;28;20941;-69
2021/10/26 04:48:27;;;;;;;19.13;13.87;;;14.50;99.90;;;;;;5052169;28;20994;-66
2021/10/26 04:50:53;;;;;;;17.63;13.00;;;14.50;99.90;;;;;;5051551;28;20787;-66
2021/10/26 04:53:20;;;;;;;16.93;15.10;;;14.60;99.90;;;;;;5051998;28;20419;-67
2021/10/26 04:55:46;;;;;;;16.17;13.57;;;14.50;99.90;;;;;;5052026;28;20174;-81
2021/10/26 04:58:12;;;;;;;17.67;14.07;;;14.50;99.90;;;;;;5052292;28;20957;-67
2021/10/26 05:00:38;;;;;;;22.37;14.77;;;14.50;99.90;;;;;;5052320;28;20496;-68
2021/10/26 05:03:04;;;;;;;14.87;13.47;;;14.50;99.90;;;;;;5051724;28;20199;-67
2021/10/26 05:05:29;;;;;;;22.13;14.53;;;14.50;99.90;;;;;;5052052;28;20380;-68
2021/10/26 05:07:55;;;;;;;18.53;14.00;;;14.50;99.90;;;;;;5050556;28;20497;-68
2021/10/26 05:10:21;;;;;;;15.33;13.73;;;14.60;99.90;;;;;;5052347;28;20628;-68
2021/10/26 05:12:47;;;;;;;17.57;13.23;;;14.60;99.90;;;;;;5053200;28;20262;-81
2021/10/26 05:15:12;;;;;;;18.37;14.30;;;14.60;99.90;;;;;;5055693;28;20247;-67
2021/10/26 05:17:39;;;;;;;18.87;15.63;;;14.60;99.90;;;;;;5056026;28;20225;-67
2021/10/26 05:20:07;;;;;;;15.47;13.80;;;14.60;99.90;;;;;;5055399;28;20527;-67
2021/10/26 05:22:33;;;;;;;20.30;14.37;;;14.60;99.90;;;;;;5055969;28;20888;-67
2021/10/26 05:24:59;;;;;;;18.33;15.47;;;14.70;99.90;;;;;;5054158;28;20402;-67
2021/10/26 05:27:25;;;;;;;17.30;14.53;;;14.60;99.90;;;;;;5055874;28;20175;-68
2021/10/26 05:29:50;;;;;;;15.93;14.23;;;14.60;99.90;;;;;;5055236;28;20224;-68
2021/10/26 05:32:17;;;;;;;16.67;14.47;;;14.60;99.90;;;;;;5055551;28;20488;-68
2021/10/26 05:34:43;;;;;;;14.73;13.37;;;14.60;99.90;;;;;;5055488;28;20687;-67
2021/10/26 05:37:10;;;;;;;19.83;14.53;;;14.50;99.90;;;;;;5055071;28;20420;-67
2021/10/26 05:39:38;;;;;;;18.70;14.70;;;14.50;99.90;;;;;;5055611;28;20747;-68
2021/10/26 05:42:05;;;;;;;15.17;13.57;;;14.50;99.90;;;;;;5053718;28;20412;-68
2021/10/26 05:44:31;;;;;;;21.00;15.47;;;14.50;99.90;;;;;;5055405;28;20464;-69
2021/10/26 05:46:56;;;;;;;23.73;16.17;;;14.50;99.90;;;;;;5054635;28;20412;-68
2021/10/26 05:49:22;;;;;;;17.20;15.50;;;14.50;99.90;;;;;;5055610;28;20205;-68
2021/10/26 05:51:48;;;;;;;16.37;14.47;;;14.50;99.90;;;;;;5055159;28;20179;-68
2021/10/26 05:54:13;;;;;;;17.93;14.80;;;14.50;99.90;;;;;;5054753;28;20210;-68
2021/10/26 05:56:39;;;;;;;19.30;14.37;;;14.50;99.90;;;;;;5054307;28;20266;-69
2021/10/26 05:59:11;;;;;;;16.23;14.53;;;14.50;99.90;;;;;;5053759;28;20213;-68
2021/10/26 06:01:36;;;;;;;20.40;14.60;;;14.50;99.90;;;;;;5055071;28;20174;-68
2021/10/26 06:04:02;;;;;;;18.10;14.60;;;14.50;99.90;;;;;;5054082;28;20765;-68
2021/10/26 06:06:29;;;;;;;19.07;16.00;;;14.50;99.90;;;;;;5055030;28;20432;-68
2021/10/26 06:08:55;;;;;;;21.73;14.60;;;14.60;99.90;;;;;;5054014;28;20422;-68
2021/10/26 06:11:22;;;;;;;16.17;14.70;;;14.60;99.90;;;;;;5055068;28;20474;-67
2021/10/26 06:13:59;;;;;;;16.30;14.23;;;14.60;99.90;;;;;;5055039;28;20206;-68
2021/10/26 06:16:25;;;;;;;16.83;15.10;;;14.60;99.90;;;;;;5033929;28;20419;-67
2021/10/26 06:18:51;;;;;;;18.07;16.40;;;14.70;99.90;;;;;;5034762;28;20910;-80
2021/10/26 06:21:16;;;;;;;13.67;12.27;;;14.60;99.90;;;;;;5034984;28;20183;-69
2021/10/26 06:23:42;;;;;;;16.70;12.30;;;14.60;99.90;;;;;;5052056;28;20186;-69
2021/10/26 06:26:08;;;;;;;14.63;12.73;;;14.60;99.90;;;;;;5061831;28;20175;-68
2021/10/26 06:28:34;;;;;;;13.83;12.33;;;14.60;99.90;;;;;;5058446;28;20268;-68
2021/10/26 06:31:00;;;;;;;17.30;14.83;;;14.60;99.90;;;;;;5069565;28;20173;-68
2021/10/26 06:33:26;;;;;;;14.83;13.20;;;14.60;99.90;;;;;;5074650;28;20178;-68
2021/10/26 06:35:52;;;;;;;16.27;14.73;;;14.60;99.90;;;;;;5074172;28;20409;-74
2021/10/26 06:38:18;;;;;;;16.97;15.17;;;14.60;99.90;;;;;;5074853;28;20413;-68
2021/10/26 06:40:44;;;;;;;14.17;12.10;;;14.60;99.90;;;;;;5074585;28;20404;-68
2021/10/26 06:43:10;;;;;;;14.20;11.57;;;14.60;99.90;;;;;;5073990;28;20205;-68
2021/10/26 06:45:35;;;;;;;14.70;13.17;;;14.60;99.90;;;;;;5052519;28;20227;-68
2021/10/26 06:48:01;;;;;;;12.47;11.17;;;14.60;99.90;;;;;;5052823;28;20169;-68
2021/10/26 06:50:27;;;;;;;12.90;10.20;;;14.60;99.90;;;;;;5051533;28;20172;-69
2021/10/26 06:52:53;;;;;;;14.90;13.30;;;14.60;99.90;;;;;;5053551;28;20563;-86
2021/10/26 06:55:19;;;;;;;17.63;12.40;;;14.60;99.90;;;;;;5053864;28;20736;-68
2021/10/26 06:57:48;;;;;;;14.90;12.73;;;14.60;99.90;;;;;;5054257;28;20474;-68
2021/10/26 07:00:15;;;;;;;13.60;11.07;;;14.60;99.90;;;;;;5052040;28;20432;-68
2021/10/26 07:02:46;;;;;;;16.90;11.53;;;14.60;99.90;;;;;;5053234;28;20405;-68
2021/10/26 07:05:14;;;;;;;17.07;10.53;;;14.60;99.90;;;;;;5051955;28;20505;-68
2021/10/26 07:07:39;;;;;;;11.80;10.50;;;14.50;99.90;;;;;;5053107;28;20500;-68
2021/10/26 07:10:05;;;;;;;11.93;10.70;;;14.50;99.90;;;;;;5053464;28;20410;-68
2021/10/26 07:12:31;;;;;;;16.17;12.60;;;14.50;99.90;;;;;;5053575;28;20171;-68
2021/10/26 07:14:57;;;;;;;11.53;9.87;;;14.50;99.90;;;;;;5053185;28;20204;-68
2021/10/26 07:17:23;;;;;;;14.37;10.80;;;14.60;99.90;;;;;;5053842;28;20502;-68
2021/10/26 07:19:49;;;;;;;11.97;10.80;;;14.50;99.90;;;;;;5053895;28;20172;-68
2021/10/26 07:22:14;;;;;;;15.03;11.67;;;14.60;99.90;;;;;;5053125;28;20628;-68
2021/10/26 07:24:40;;;;;;;12.50;10.40;;;14.60;99.90;;;;;;5057549;28;20179;-68
2021/10/26 07:27:06;;;;;;;11.77;9.80;;;14.50;99.90;;;;;;5055367;28;20182;-68
2021/10/26 07:29:31;;;;;;;13.00;11.80;;;14.50;99.90;;;;;;5053368;28;20262;-68
2021/10/26 07:31:57;;;;;;;12.87;11.57;;;14.50;99.90;;;;;;5057147;28;20171;-68
2021/10/26 07:34:23;;;;;;;11.93;10.93;;;14.50;99.90;;;;;;5053496;28;20230;-67
2021/10/26 07:36:50;;;;;;;9.93;9.03;;;14.50;99.90;;;;;;5053056;28;20586;-68
2021/10/26 07:41:53;;;;;;;10.17;8.90;;;14.50;99.90;;;;;;5053551;28;20416;-68
2021/10/26 07:44:20;;;;;;;11.13;9.00;;;14.50;99.90;;;;;;5051823;28;20462;-74
2021/10/26 07:46:45;;;;;;;9.90;8.93;;;14.50;99.90;;;;;;5053191;28;20451;-68
2021/10/26 07:49:11;;;;;;;10.13;9.03;;;14.60;99.90;;;;;;5052803;28;20412;-68
2021/10/26 07:51:37;;;;;;;9.83;8.73;;;14.60;99.90;;;;;;5053463;28;20175;-67
2021/10/26 07:54:03;;;;;;;13.43;9.00;;;14.60;99.90;;;;;;5052399;28;20197;-67
2021/10/26 07:56:29;;;;;;;9.13;8.23;;;14.70;99.90;;;;;;5052444;28;20554;-67
2021/10/26 07:58:56;;;;;;;9.40;7.60;;;14.70;99.90;;;;;;5052772;28;20412;-67
2021/10/26 08:01:22;;;;;;;9.90;8.40;;;14.70;99.90;;;;;;5052600;28;20236;-68
2021/10/26 08:03:48;;;;;;;10.17;8.90;;;14.70;99.90;;;;;;5052598;28;20909;-68
2021/10/26 08:06:13;;;;;;;11.40;10.30;;;14.70;99.90;;;;;;5052156;28;20419;-68
2021/10/26 08:08:39;;;;;;;10.00;7.73;;;14.70;99.90;;;;;;5051985;28;20188;-68
2021/10/26 08:11:05;;;;;;;14.23;10.10;;;14.80;99.90;;;;;;5052200;28;20175;-67
2021/10/26 08:13:31;;;;;;;10.30;8.93;;;14.80;99.90;;;;;;5052731;28;20167;-67
2021/10/26 08:15:57;;;;;;;8.47;7.53;;;14.80;99.90;;;;;;5052752;28;20896;-78
2021/10/26 08:18:23;;;;;;;10.33;9.23;;;14.80;99.90;;;;;;5052798;28;20413;-67
2021/10/26 08:20:49;;;;;;;8.43;7.63;;;14.80;99.90;;;;;;5052552;28;20457;-66
2021/10/26 08:23:17;;;;;;;10.80;7.97;;;14.80;99.90;;;;;;5052264;28;20206;-68
2021/10/26 08:25:47;;;;;;;13.80;7.30;;;14.80;99.90;;;;;;5052439;28;20412;-68
2021/10/26 08:28:16;;;;;;;7.93;7.13;;;14.80;99.90;;;;;;5052050;28;20395;-69
2021/10/26 08:30:54;;;;;;;7.93;7.10;;;14.90;99.90;;;;;;5052504;28;20419;-69
2021/10/26 08:35:58;;;;;;;7.80;7.00;;;14.80;99.90;;;;;;5052544;28;20538;-68
2021/10/26 08:38:24;;;;;;;12.50;9.57;;;14.70;99.90;;;;;;5052532;28;20782;-67
2021/10/26 08:40:50;;;;;;;9.50;7.20;;;14.70;99.90;;;;;;5052455;28;20407;-67
2021/10/26 08:43:22;;;;;;;8.37;7.37;;;14.70;99.90;;;;;;5051539;28;20782;-67
2021/10/26 08:45:49;;;;;;;7.17;6.57;;;14.70;99.90;;;;;;5051813;28;20497;-68
2021/10/26 08:48:21;;;;;;;10.83;7.60;;;14.70;99.90;;;;;;5054758;28;20422;-68
2021/10/26 08:50:49;;;;;;;7.77;7.07;;;14.70;99.90;;;;;;5056601;28;20397;-68
2021/10/26 08:53:16;;;;;;;9.40;8.53;;;14.70;99.90;;;;;;5056105;28;20886;-68
2021/10/26 08:55:42;;;;;;;9.17;8.27;;;14.70;99.90;;;;;;5056578;28;20953;-67
2021/10/26 08:58:08;;;;;;;8.77;7.40;;;14.70;99.90;;;;;;5055856;28;20933;-68
2021/10/26 09:00:36;;;;;;;8.93;8.13;;;14.80;99.90;;;;;;5056620;28;20407;-67
2021/10/26 09:03:19;;;;;;;14.83;9.30;;;14.70;99.90;;;;;;5055816;28;20535;-68
2021/10/26 09:05:46;;;;;;;9.23;8.43;;;14.70;99.90;;;;;;5056350;28;20788;-68
2021/10/26 09:08:12;;;;;;;9.90;8.90;;;14.70;99.90;;;;;;5055622;28;20479;-68
2021/10/26 09:10:39;;;;;;;9.20;8.40;;;14.70;99.90;;;;;;5056468;28;20505;-68
2021/10/26 09:19:10;;;;;;;10.80;9.53;;;14.80;99.90;;;;;;5033010;28;20427;-68
2021/10/26 09:21:37;;;;;;;11.77;7.97;;;14.80;99.90;;;;;;5033917;28;20848;-68
2021/10/26 09:24:10;;;;;;;11.47;7.90;;;14.90;99.90;;;;;;5043815;28;20417;-71
2021/10/26 09:26:51;;;;;;;10.27;7.07;;;14.90;99.90;;;;;;5054782;28;20406;-68
2021/10/26 09:29:28;;;;;;;7.33;6.20;;;15.00;99.90;;;;;;5055284;28;20423;-68
2021/10/26 09:32:11;;;;;;;7.43;6.83;;;15.00;99.90;;;;;;5055945;28;20452;-70
2021/10/26 09:34:46;;;;;;;9.47;7.03;;;15.00;99.90;;;;;;5055813;28;20441;-68
2021/10/26 09:37:14;;;;;;;7.83;7.00;;;15.00;99.90;;;;;;5055039;28;20422;-68
2021/10/26 09:39:48;;;;;;;8.43;6.50;;;15.10;99.90;;;;;;5055648;28;20461;-68
2021/10/26 09:42:14;;;;;;;8.70;8.00;;;15.20;99.90;;;;;;5054760;28;20929;-68
2021/10/26 09:44:57;;;;;;;8.53;7.67;;;15.30;99.90;;;;;;5055385;28;20458;-68
2021/10/26 09:47:26;;;;;;;8.80;6.80;;;15.30;99.90;;;;;;5054975;28;20647;-68
2021/10/26 09:49:55;;;;;;;7.40;6.70;;;15.50;99.90;;;;;;5055984;28;20818;-68
2021/10/26 09:52:28;;;;;;;8.20;7.40;;;15.40;99.90;;;;;;5054831;28;20416;-68
2021/10/26 09:55:16;;;;;;;10.07;7.80;;;15.50;99.90;;;;;;5055320;28;20941;-68
2021/10/26 09:57:47;;;;;;;7.73;6.70;;;15.50;99.90;;;;;;5054727;28;20441;-68
2021/10/26 10:00:21;;;;;;;8.40;6.27;;;15.60;99.90;;;;;;5053977;28;20390;-68
2021/10/26 10:02:57;;;;;;;8.27;7.67;;;15.60;99.90;;;;;;5055418;28;20513;-68
2021/10/26 10:05:24;;;;;;;11.10;8.10;;;15.50;99.90;;;;;;5054680;28;20811;-68
2021/10/26 10:07:50;;;;;;;6.80;6.20;;;15.60;99.90;;;;;;5055224;28;20415;-68
2021/10/26 10:10:16;;;;;;;7.00;6.17;;;15.60;99.90;;;;;;5054483;28;20422;-68
2021/10/26 10:12:44;;;;;;;8.40;7.63;;;15.70;99.90;;;;;;5055105;28;20408;-68
2021/10/26 10:15:13;;;;;;;8.63;7.80;;;15.70;99.90;;;;;;5053992;28;20943;-69
2021/10/26 10:17:40;;;;;;;8.13;7.43;;;15.70;99.90;;;;;;5054937;28;20431;-68
2021/10/26 10:20:12;;;;;;;7.27;6.67;;;15.70;99.90;;;;;;5054387;28;20426;-69
2021/10/26 10:22:41;;;;;;;8.30;7.50;;;15.80;99.90;;;;;;5055005;28;20503;-69
2021/10/26 10:25:09;;;;;;;7.33;6.63;;;15.90;99.90;;;;;;5054269;28;20769;-68
2021/10/26 10:27:38;;;;;;;8.03;7.37;;;15.90;99.90;;;;;;5054876;28;20470;-69
2021/10/26 10:30:11;;;;;;;6.87;6.27;;;16.00;99.90;;;;;;5054438;28;20853;-68
2021/10/26 10:32:38;;;;;;;8.80;8.20;;;16.00;99.90;;;;;;5054773;28;20439;-68
2021/10/26 10:35:08;;;;;;;7.93;6.17;;;16.30;99.90;;;;;;5054271;28;20785;-68
2021/10/26 10:37:36;;;;;;;7.50;6.13;;;16.40;99.90;;;;;;5054785;28;20451;-68
2021/10/26 10:40:04;;;;;;;6.53;5.93;;;16.60;99.90;;;;;;5054571;28;20407;-68
2021/10/26 10:42:30;;;;;;;8.10;6.00;;;16.70;99.90;;;;;;5053908;28;20462;-69
2021/10/26 10:45:02;;;;;;;5.97;5.37;;;17.00;99.90;;;;;;5054440;28;20816;-69
2021/10/26 10:47:42;;;;;;;5.30;4.77;;;17.20;99.50;;;;;;5053838;28;20414;-68
2021/10/26 10:50:20;;;;;;;6.60;6.00;;;17.30;98.50;;;;;;5053830;28;20465;-69
2021/10/26 10:53:08;;;;;;;5.70;4.77;;;17.20;98.40;;;;;;5054286;28;20466;-68
2021/10/26 10:55:35;;;;;;;8.80;8.20;;;17.30;99.20;;;;;;5054269;28;20478;-68
2021/10/26 10:58:24;;;;;;;4.80;4.40;;;17.20;98.80;;;;;;5054328;28;20424;-68
2021/10/26 11:00:52;;;;;;;8.90;8.20;;;17.20;98.30;;;;;;5054076;28;20932;-67
2021/10/26 11:03:32;;;;;;;7.10;6.40;;;17.30;98.90;;;;;;5052744;28;20413;-68
2021/10/26 11:06:01;;;;;;;6.27;5.70;;;17.30;99.50;;;;;;5053797;28;20391;-68
2021/10/26 11:08:43;;;;;;;8.70;8.00;;;17.20;98.70;;;;;;5053231;28;21052;-67
2021/10/26 11:11:10;;;;;;;8.30;7.80;;;17.40;99.20;;;;;;5052328;28;20740;-69
2021/10/26 11:13:36;;;;;;;7.50;5.60;;;17.60;99.40;;;;;;5053867;28;20412;-67
2021/10/26 11:16:06;;;;;;;6.93;5.57;;;17.80;99.30;;;;;;5053906;28;20515;-68
2021/10/26 11:18:49;;;;;;;8.67;7.83;;;17.90;97.90;;;;;;5053302;28;20245;-67
2021/10/26 11:21:24;;;;;;;7.77;6.97;;;18.10;97.70;;;;;;5052075;28;20411;-68
2021/10/26 11:23:57;;;;;;;8.17;6.13;;;18.20;98.10;;;;;;5053762;28;20412;-68
2021/10/26 11:26:49;;;;;;;7.60;6.80;;;18.50;97.40;;;;;;5051888;28;20409;-68
2021/10/26 11:29:28;;;;;;;6.27;5.50;;;18.50;96.90;;;;;;5049645;28;20780;-67
2021/10/26 11:31:53;;;;;;;7.10;6.60;;;18.60;96.60;;;;;;5053668;28;20396;-68
2021/10/26 11:34:33;;;;;;;7.43;6.73;;;18.70;96.00;;;;;;5052627;28;20858;-68
2021/10/26 11:37:04;;;;;;;9.27;7.10;;;18.70;95.80;;;;;;5053493;28;20240;-68
2021/10/26 11:39:31;;;;;;;9.10;8.50;;;18.50;95.70;;;;;;5052641;28;20458;-68
2021/10/26 11:41:59;;;;;;;7.97;7.17;;;18.40;96.00;;;;;;5053467;28;20458;-68
2021/10/26 11:44:25;;;;;;;7.77;7.10;;;18.20;96.30;;;;;;5052353;28;20526;-67
2021/10/26 11:46:51;;;;;;;9.23;6.77;;;18.00;96.70;;;;;;5053490;28;20444;-68
2021/10/26 11:49:23;;;;;;;8.33;7.40;;;17.90;97.70;;;;;;5052740;28;20469;-68
2021/10/26 11:51:55;;;;;;;7.27;6.57;;;17.90;98.10;;;;;;5052419;28;20751;-68
2021/10/26 11:54:48;;;;;;;6.77;6.10;;;17.90;97.70;;;;;;5052630;28;20447;-68
2021/10/26 11:57:21;;;;;;;8.23;7.47;;;18.00;97.70;;;;;;5052634;28;20419;-68
2021/10/26 11:59:47;;;;;;;6.33;5.60;;;18.00;97.00;;;;;;5053629;28;20392;-68
2021/10/26 12:02:18;;;;;;;7.00;6.43;;;18.00;97.20;;;;;;5052505;28;20757;-69
2021/10/26 12:04:55;;;;;;;8.20;7.13;;;18.00;97.50;;;;;;5053088;28;20401;-68
2021/10/26 12:07:24;;;;;;;5.63;5.13;;;18.00;97.00;;;;;;5052079;28;20412;-69
2021/10/26 12:09:55;;;;;;;10.40;6.70;;;17.90;96.80;;;;;;5052739;28;20423;-68
2021/10/26 12:12:28;;;;;;;8.10;6.03;;;17.90;97.20;;;;;;5052331;28;20495;-68
2021/10/26 12:14:56;;;;;;;7.63;5.53;;;17.90;97.60;;;;;;5052949;28;20458;-68
2021/10/26 12:17:24;;;;;;;7.40;6.90;;;17.90;97.40;;;;;;5052208;28;20417;-68
2021/10/26 12:19:51;;;;;;;9.73;4.80;;;17.90;97.40;;;;;;5052937;28;20408;-68
2021/10/26 12:22:28;;;;;;;5.93;5.43;;;17.80;97.40;;;;;;5051794;28;20454;-68
2021/10/26 12:24:59;;;;;;;5.50;5.00;;;17.80;97.60;;;;;;5052786;28;20491;-68
2021/10/26 12:27:36;;;;;;;5.87;5.17;;;17.80;97.50;;;;;;5051966;28;20491;-68
2021/10/26 12:30:16;;;;;;;5.33;4.93;;;17.80;97.60;;;;;;5052756;28;20502;-68
2021/10/26 12:33:03;;;;;;;5.07;4.70;;;17.80;97.80;;;;;;5052688;28;20408;-68
2021/10/26 12:35:51;;;;;;;4.53;4.13;;;17.70;97.40;;;;;;5052021;28;20793;-68
2021/10/26 12:38:25;;;;;;;4.80;4.47;;;17.70;97.70;;;;;;5051745;28;20444;-68
2021/10/26 12:40:53;;;;;;;4.83;4.23;;;17.60;97.70;;;;;;5052656;28;20419;-68
2021/10/26 12:43:22;;;;;;;5.93;4.67;;;17.60;97.80;;;;;;5051547;28;20458;-68
2021/10/26 12:45:49;;;;;;;4.90;3.97;;;17.60;97.50;;;;;;5052127;28;20462;-68
2021/10/26 12:48:15;;;;;;;4.70;3.90;;;17.60;97.40;;;;;;5051821;28;20416;-69
2021/10/26 12:50:46;;;;;;;6.70;6.00;;;17.60;97.30;;;;;;5052475;28;20532;-68